Time;durP1;ratioP1;P1;durP2;ratioP2;P2;SDS_P1;SDS_P2;PMS_P1;PMS_P2;Temp;Humidity;BMP_temperature;BMP_pressure;BME280_temperature;BME280_humidity;BME280_pressure;Samples;Min_cycle;Max_cycle;Signal;HPM_P1;HPM_P2
2022/04/03 00:01:41;;;;;;;;;;;;;;;0.34;97.19;102464.09;5045361;28;19920;-72
2022/04/03 00:04:06;;;;;;;;;;;;;;;0.28;97.59;102458.81;5044169;28;20019;-73
2022/04/03 00:06:31;;;;;;;;;;;;;;;0.22;97.16;102461.25;5049718;28;20029;-73
2022/04/03 00:08:57;;;;;;;;;;;;;;;0.14;97.38;102454.19;5043687;28;20400;-71
2022/04/03 00:11:22;;;;;;;;;;;;;;;0.13;98.23;102457.59;5049146;28;19925;-73
2022/04/03 00:13:49;;;;;;;;;;;;;;;0.14;98.97;102461.09;5045774;28;20011;-73
2022/04/03 00:16:14;;;;;;;;;;;;;;;0.10;99.37;102460.13;5044786;28;20313;-74
2022/04/03 00:18:40;;;;;;;;;;;;;;;0.05;98.43;102459.16;5047634;28;19928;-72
2022/04/03 00:21:05;;;;;;;;;;;;;;;-0.03;99.13;102460.69;5048206;28;19921;-72
2022/04/03 00:23:30;;;;;;;;;;;;;;;-0.07;99.27;102464.03;5046357;28;19924;-72
2022/04/03 00:25:56;;;;;;;;;;;;;;;-0.13;99.53;102463.88;5045758;28;19925;-73
2022/04/03 00:28:21;;;;;;;;;;;;;;;-0.21;99.56;102464.56;5054289;28;19921;-73
2022/04/03 00:30:47;;;;;;;;;;;;;;;-0.16;100.00;102469.84;5048461;28;20281;-73
2022/04/03 00:33:13;;;;;;;;;;;;;;;-0.26;100.00;102460.13;5047886;28;20048;-73
2022/04/03 00:35:38;;;;;;;;;;;;;;;-0.27;100.00;102466.13;5048868;28;19928;-73
2022/04/03 00:38:04;;;;;;;;;;;;;;;-0.30;100.00;102463.47;5045330;28;19928;-73
2022/04/03 00:40:29;;;;;;;;;;;;;;;-0.39;100.00;102458.94;5046517;28;20459;-72
2022/04/03 00:42:55;;;;;;;;;;;;;;;-0.33;100.00;102459.97;5049766;28;19929;-72
2022/04/03 00:45:20;;;;;;;;;;;;;;;-0.33;100.00;102464.28;5049613;28;20003;-73
2022/04/03 00:47:50;;;;;;;;;;;;;;;-0.33;100.00;102461.72;5046771;28;19951;-72
2022/04/03 00:50:17;;;;;;;;;;;;;;;-0.40;100.00;102459.78;5046489;28;29597;-73
2022/04/03 00:52:42;;;;;;;;;;;;;;;-0.45;100.00;102456.22;5048261;28;19921;-73
2022/04/03 00:55:08;;;;;;;;;;;;;;;-0.50;100.00;102456.13;5049527;28;19936;-73
2022/04/03 00:57:33;;;;;;;;;;;;;;;-0.54;100.00;102457.72;5049352;28;19928;-71
2022/04/03 00:59:59;;;;;;;;;;;;;;;-0.59;100.00;102461.00;5047614;28;19920;-73
2022/04/03 01:02:24;;;;;;;;;;;;;;;-0.65;100.00;102453.97;5045547;28;19995;-72
2022/04/03 01:04:50;;;;;;;;;;;;;;;-0.66;100.00;102453.13;5054902;28;19928;-74
2022/04/03 01:07:15;;;;;;;;;;;;;;;-0.69;100.00;102454.75;5044893;28;20029;-73
2022/04/03 01:09:41;;;;;;;;;;;;;;;-0.61;100.00;102460.13;5050010;28;19929;-72
2022/04/03 01:12:06;;;;;;;;;;;;;;;-0.64;100.00;102456.63;5047520;28;19956;-72
2022/04/03 01:14:32;;;;;;;;;;;;;;;-0.64;100.00;102451.47;5059815;28;19930;-73
2022/04/03 01:16:58;;;;;;;;;;;;;;;-0.74;100.00;102456.34;5081425;28;19966;-72
2022/04/03 01:19:24;;;;;;;;;;;;;;;-0.79;100.00;102454.53;5052082;28;20011;-73
2022/04/03 01:21:50;;;;;;;;;;;;;;;-0.78;100.00;102452.81;5053640;28;19932;-72
2022/04/03 01:24:18;;;;;;;;;;;;;;;-0.84;100.00;102456.09;5054955;28;19921;-73
2022/04/03 01:26:44;;;;;;;;;;;;;;;-0.88;100.00;102455.97;5053240;28;19929;-72
2022/04/03 01:29:09;;;;;;;;;;;;;;;-0.88;100.00;102455.97;5052268;28;20391;-73
2022/04/03 01:31:34;;;;;;;;;;;;;;;-0.87;100.00;102458.59;5053994;28;19967;-72
2022/04/03 01:34:00;;;;;;;;;;;;;;;-0.82;100.00;102459.59;5044002;28;19928;-72
2022/04/03 01:36:25;;;;;;;;;;;;;;;-0.83;100.00;102450.09;5028800;28;20307;-73
2022/04/03 01:38:50;;;;;;;;;;;;;;;-0.89;100.00;102449.94;5039570;28;19978;-72
2022/04/03 01:41:16;;;;;;;;;;;;;;;-0.87;100.00;102440.53;5051500;28;19984;-72
2022/04/03 01:43:41;;;;;;;;;;;;;;;-0.88;100.00;102443.94;5031082;28;19917;-73
2022/04/03 01:46:06;;;;;;;;;;;;;;;-0.90;100.00;102437.88;5037723;28;19975;-73
2022/04/03 01:48:32;;;;;;;;;;;;;;;-0.96;100.00;102438.59;5049095;28;19992;-72
2022/04/03 01:50:57;;;;;;;;;;;;;;;-0.97;100.00;102443.69;5049242;28;19925;-74
2022/04/03 01:53:25;;;;;;;;;;;;;;;-0.96;100.00;102436.00;5046989;28;19925;-74
2022/04/03 01:55:58;;;;;;;;;;;;;;;-1.04;100.00;102437.47;5050683;28;20428;-73
2022/04/03 01:58:24;;;;;;;;;;;;;;;-1.05;100.00;102438.34;5021432;28;19956;-72
2022/04/03 02:00:49;;;;;;;;;;;;;;;-1.07;100.00;102431.38;5035970;28;19921;-73
2022/04/03 02:03:14;;;;;;;;;;;;;;;-1.09;100.00;102437.38;5048636;28;20365;-72
2022/04/03 02:05:40;;;;;;;;;;;;;;;-1.14;100.00;102430.31;5052328;28;20342;-73
2022/04/03 02:08:05;;;;;;;;;;;;;;;-1.17;100.00;102428.56;5049236;28;19936;-74
2022/04/03 02:10:31;;;;;;;;;;;;;;;-1.15;100.00;102429.47;5050360;28;19999;-73
2022/04/03 02:12:56;;;;;;;;;;;;;;;-1.19;100.00;102432.78;5050547;28;20404;-72
2022/04/03 02:15:21;;;;;;;;;;;;;;;-1.14;100.00;102435.50;5049837;28;19951;-73
2022/04/03 02:17:46;;;;;;;;;;;;;;;-1.19;100.00;102430.19;5051894;28;20334;-73
2022/04/03 02:20:12;;;;;;;;;;;;;;;-1.22;100.00;102430.16;5050544;28;19917;-73
2022/04/03 02:22:37;;;;;;;;;;;;;;;-1.17;100.00;102435.44;5051798;28;19921;-73
2022/04/03 02:25:04;;;;;;;;;;;;;;;-1.16;100.00;102435.47;5049841;28;20336;-72
2022/04/03 02:27:29;;;;;;;;;;;;;;;-1.13;100.00;102435.56;5050084;28;20399;-73
2022/04/03 02:29:54;;;;;;;;;;;;;;;-1.18;100.00;102436.25;5048186;28;20004;-73
2022/04/03 02:32:20;;;;;;;;;;;;;;;-1.26;100.00;102431.72;5047509;28;19925;-74
2022/04/03 02:34:45;;;;;;;;;;;;;;;-1.23;100.00;102433.56;5048074;28;19956;-73
2022/04/03 02:37:11;;;;;;;;;;;;;;;-1.23;100.00;102428.41;5047288;28;19969;-73
2022/04/03 02:39:37;;;;;;;;;;;;;;;-1.19;100.00;102430.19;5049865;28;19924;-72
2022/04/03 02:42:04;;;;;;;;;;;;;;;-1.18;100.00;102424.22;5049358;28;20044;-72
2022/04/03 02:44:30;;;;;;;;;;;;;;;-1.18;100.00;102431.09;5049761;28;19966;-73
2022/04/03 02:46:55;;;;;;;;;;;;;;;-1.21;100.00;102431.84;5049607;28;20006;-73
2022/04/03 02:49:20;;;;;;;;;;;;;;;-1.20;100.00;102432.75;5048847;28;19931;-73
2022/04/03 02:51:46;;;;;;;;;;;;;;;-1.18;100.00;102425.94;5049870;28;20394;-73
2022/04/03 02:54:12;;;;;;;;;;;;;;;-1.30;100.00;102429.91;5049112;28;19927;-72
2022/04/03 02:56:37;;;;;;;;;;;;;;;-1.26;100.00;102428.28;5052561;28;19952;-72
2022/04/03 02:59:03;;;;;;;;;;;;;;;-1.31;100.00;102428.16;5050015;28;19963;-73
2022/04/03 03:01:28;;;;;;;;;;;;;;;-1.37;100.00;102429.69;5050826;28;19917;-72
2022/04/03 03:03:53;;;;;;;;;;;;;;;-1.37;100.00;102421.97;5050379;28;20370;-73
2022/04/03 03:06:19;;;;;;;;;;;;;;;-1.45;100.00;102430.38;5049684;28;20365;-73
2022/04/03 03:08:44;;;;;;;;;;;;;;;-1.45;100.00;102427.78;5048846;28;19920;-72
2022/04/03 03:11:10;;;;;;;;;;;;;;;-1.48;100.00;102421.63;5064751;28;20328;-72
2022/04/03 03:13:36;;;;;;;;;;;;;;;-1.53;100.00;102428.38;5065326;28;19924;-73
2022/04/03 03:16:02;;;;;;;;;;;;;;;-1.53;100.00;102429.25;5050011;28;19928;-73
2022/04/03 03:18:27;;;;;;;;;;;;;;;-1.50;100.00;102429.34;5041116;28;19924;-73
2022/04/03 03:20:52;;;;;;;;;;;;;;;-1.46;100.00;102417.41;5051016;28;19931;-72
2022/04/03 03:23:18;;;;;;;;;;;;;;;-1.49;100.00;102428.50;5048509;28;19975;-73
2022/04/03 03:25:45;;;;;;;;;;;;;;;-1.53;100.00;102425.81;5080853;28;19917;-72
2022/04/03 03:28:10;;;;;;;;;;;;;;;-1.54;100.00;102422.34;5048842;28;19925;-72
2022/04/03 03:30:36;;;;;;;;;;;;;;;-1.61;100.00;102416.16;5048572;28;20262;-73
2022/04/03 03:33:01;;;;;;;;;;;;;;;-1.60;100.00;102429.91;5049429;28;20390;-73
2022/04/03 03:35:26;;;;;;;;;;;;;;;-1.64;100.00;102422.91;5049539;28;19917;-73
2022/04/03 03:37:52;;;;;;;;;;;;;;;-1.57;100.00;102422.28;5049597;28;20023;-72
2022/04/03 03:40:17;;;;;;;;;;;;;;;-1.58;100.00;102420.53;5048798;28;20322;-72
2022/04/03 03:42:42;;;;;;;;;;;;;;;-1.66;100.00;102422.88;5049977;28;20007;-72
2022/04/03 03:45:09;;;;;;;;;;;;;;;-1.73;100.00;102411.50;5048858;28;19925;-72
2022/04/03 03:47:34;;;;;;;;;;;;;;;-1.69;100.00;102419.34;5051989;28;20061;-72
2022/04/03 03:49:59;;;;;;;;;;;;;;;-1.70;100.00;102418.44;5049949;28;20019;-73
2022/04/03 03:52:25;;;;;;;;;;;;;;;-1.75;100.00;102418.31;5048486;28;20029;-73
2022/04/03 03:54:51;;;;;;;;;;;;;;;-1.66;100.00;102419.44;5037053;28;20004;-73
2022/04/03 03:57:17;;;;;;;;;;;;;;;-1.71;100.00;102422.72;5029774;28;19917;-73
2022/04/03 03:59:43;;;;;;;;;;;;;;;-1.65;100.00;102424.63;5030734;28;20278;-72
2022/04/03 04:02:08;;;;;;;;;;;;;;;-1.68;100.00;102423.66;5029363;28;19967;-73
2022/04/03 04:04:34;;;;;;;;;;;;;;;-1.76;100.00;102419.13;5032608;28;19921;-73
2022/04/03 04:06:59;;;;;;;;;;;;;;;-1.72;100.00;102422.69;5038394;28;19920;-74
2022/04/03 04:09:24;;;;;;;;;;;;;;;-1.76;100.00;102416.56;5043977;28;19939;-73
2022/04/03 04:11:50;;;;;;;;;;;;;;;-1.81;100.00;102420.72;5050188;28;19921;-73
2022/04/03 04:14:15;;;;;;;;;;;;;;;-1.81;100.00;102423.28;5043928;28;19952;-72
2022/04/03 04:16:42;;;;;;;;;;;;;;;-1.80;100.00;102414.72;5042757;28;19924;-73
2022/04/03 04:19:07;;;;;;;;;;;;;;;-1.78;100.00;102418.25;5047510;28;19917;-73
2022/04/03 04:21:33;;;;;;;;;;;;;;;-1.75;100.00;102420.03;5052347;28;19917;-73
2022/04/03 04:23:58;;;;;;;;;;;;;;;-1.71;100.00;102422.72;5049804;28;19927;-73
2022/04/03 04:26:24;;;;;;;;;;;;;;;-1.71;100.00;102419.31;5048736;28;20389;-73
2022/04/03 04:28:50;;;;;;;;;;;;;;;-1.80;100.00;102425.03;5051349;28;20408;-73
2022/04/03 04:31:16;;;;;;;;;;;;;;;-1.83;100.00;102422.38;5049120;28;19916;-73
2022/04/03 04:33:41;;;;;;;;;;;;;;;-1.81;100.00;102414.66;5049955;28;20019;-73
2022/04/03 04:36:07;;;;;;;;;;;;;;;-1.88;100.00;102421.38;5049208;28;19952;-74
2022/04/03 04:38:32;;;;;;;;;;;;;;;-1.92;100.00;102416.94;5049773;28;19916;-72
2022/04/03 04:40:57;;;;;;;;;;;;;;;-1.94;100.00;102416.91;5051149;28;19917;-73
2022/04/03 04:43:23;;;;;;;;;;;;;;;-1.94;100.00;102418.59;5047858;28;19922;-73
2022/04/03 04:45:48;;;;;;;;;;;;;;;-1.87;100.00;102412.78;5049754;28;19923;-73
2022/04/03 04:48:13;;;;;;;;;;;;;;;-1.92;100.00;102412.66;5048648;28;20246;-73
2022/04/03 04:50:39;;;;;;;;;;;;;;;-1.97;100.00;102413.31;5053135;28;20370;-73
2022/04/03 04:53:04;;;;;;;;;;;;;;;-1.99;100.00;102415.88;5053770;28;19960;-72
2022/04/03 04:55:29;;;;;;;;;;;;;;;-1.97;100.00;102419.38;5052884;28;19929;-73
2022/04/03 04:57:56;;;;;;;;;;;;;;;-1.90;100.00;102420.44;5053373;28;20414;-73
2022/04/03 05:00:23;;;;;;;;;;;;;;;-1.95;100.00;102414.25;5050802;28;20380;-73
2022/04/03 05:02:49;;;;;;;;;;;;;;;-1.93;100.00;102420.34;5054343;28;19989;-73
2022/04/03 05:05:15;;;;;;;;;;;;;;;-1.91;100.00;102419.53;5051171;28;20444;-73
2022/04/03 05:07:41;;;;;;;;;;;;;;;-1.91;100.00;102416.97;5052678;28;19925;-72
2022/04/03 05:10:06;;;;;;;;;;;;;;;-1.91;100.00;102405.81;5049085;28;20012;-73
2022/04/03 05:12:32;;;;;;;;;;;;;;;-1.94;100.00;102409.16;5043053;28;19917;-72
2022/04/03 05:14:57;;;;;;;;;;;;;;;-1.96;100.00;102408.25;5050715;28;19921;-72
2022/04/03 05:17:22;;;;;;;;;;;;;;;-1.90;100.00;102408.41;5052629;28;20015;-73
2022/04/03 05:19:47;;;;;;;;;;;;;;;-1.92;100.00;102404.91;5054034;28;19925;-72
2022/04/03 05:22:13;;;;;;;;;;;;;;;-1.87;100.00;102399.91;5050253;28;20308;-72
2022/04/03 05:24:38;;;;;;;;;;;;;;;-1.84;100.00;102402.56;5053494;28;19917;-73
2022/04/03 05:27:05;;;;;;;;;;;;;;;-1.81;100.00;102406.94;5053516;28;19924;-72
2022/04/03 05:29:34;;;;;;;;;;;;;;;-1.78;100.00;102400.19;5052049;28;20456;-73
2022/04/03 05:31:59;;;;;;;;;;;;;;;-1.74;100.00;102402.03;5053050;28;19917;-73
2022/04/03 05:34:24;;;;;;;;;;;;;;;-1.69;100.00;102406.44;5051749;28;20011;-73
2022/04/03 05:36:50;;;;;;;;;;;;;;;-1.64;100.00;102405.75;5053158;28;19917;-72
2022/04/03 05:39:15;;;;;;;;;;;;;;;-1.57;100.00;102402.50;5051592;28;20285;-72
2022/04/03 05:41:40;;;;;;;;;;;;;;;-1.58;100.00;102411.06;5053167;28;20316;-73
2022/04/03 05:44:06;;;;;;;;;;;;;;;-1.52;100.00;102407.78;5051991;28;19917;-73
2022/04/03 05:46:31;;;;;;;;;;;;;;;-1.49;100.00;102407.91;5051831;28;19979;-73
2022/04/03 05:48:56;;;;;;;;;;;;;;;-1.36;100.00;102410.81;5052636;28;19944;-73
2022/04/03 05:51:22;;;;;;;;;;;;;;;-1.20;100.00;102419.84;5051461;28;19921;-74
2022/04/03 05:53:47;;;;;;;;;;;;;;;-0.96;100.00;102414.47;5052701;28;20301;-72
2022/04/03 05:56:12;;;;;;;;;;;;;;;-0.64;100.00;102412.75;5051735;28;19998;-73
2022/04/03 05:58:38;;;;;;;;;;;;;;;-0.41;100.00;102407.28;5052473;28;20397;-73
2022/04/03 06:01:03;;;;;;;;;;;;;;;-0.21;100.00;102410.31;5051747;28;19975;-74
2022/04/03 06:03:29;;;;;;;;;;;;;;;0.01;100.00;102413.41;5051685;28;19917;-72
2022/04/03 06:05:54;;;;;;;;;;;;;;;0.14;100.00;102412.84;5052276;28;20279;-72
2022/04/03 06:08:19;;;;;;;;;;;;;;;0.21;100.00;102411.25;5051132;28;19974;-72
2022/04/03 06:10:45;;;;;;;;;;;;;;;0.29;100.00;102409.69;5050864;28;19917;-73
2022/04/03 06:13:12;;;;;;;;;;;;;;;0.34;100.00;102414.13;5050959;28;19916;-73
2022/04/03 06:15:38;;;;;;;;;;;;;;;0.35;100.00;102416.72;5051892;28;20329;-71
2022/04/03 06:18:05;;;;;;;;;;;;;;;0.34;100.00;102414.97;5051879;28;19947;-72
2022/04/03 06:20:30;;;;;;;;;;;;;;;0.33;100.00;102412.38;5066322;28;20378;-73
2022/04/03 06:22:56;;;;;;;;;;;;;;;0.35;100.00;102416.72;5052006;28;19964;-73
2022/04/03 06:25:22;;;;;;;;;;;;;;;0.46;100.00;102417.81;5050905;28;20008;-73
2022/04/03 06:27:47;;;;;;;;;;;;;;;0.65;100.00;102422.50;5052925;28;20011;-72
2022/04/03 06:30:13;;;;;;;;;;;;;;;0.94;100.00;102420.47;5050392;28;19964;-73
2022/04/03 06:32:39;;;;;;;;;;;;;;;1.11;100.00;102419.91;5051007;28;19927;-73
2022/04/03 06:35:04;;;;;;;;;;;;;;;1.17;99.58;102410.53;5049989;28;19940;-71
2022/04/03 06:37:30;;;;;;;;;;;;;;;1.27;98.97;102406.41;5047664;28;19946;-72
2022/04/03 06:39:55;;;;;;;;;;;;;;;1.30;98.63;102416.81;5050405;28;19980;-73
2022/04/03 06:42:21;;;;;;;;;;;;;;;1.31;97.85;102405.63;5046663;28;19927;-73
2022/04/03 06:44:46;;;;;;;;;;;;;;;1.33;98.02;102405.63;5049827;28;19994;-73
2022/04/03 06:47:11;;;;;;;;;;;;;;;1.42;98.19;102410.13;5048746;28;20006;-73
2022/04/03 06:49:40;;;;;;;;;;;;;;;1.57;98.26;102410.34;5050532;28;19917;-74
2022/04/03 06:52:05;;;;;;;;;;;;;;;1.83;98.17;102407.31;5050706;28;19944;-73
2022/04/03 06:54:31;;;;;;;;;;;;;;;2.07;95.85;102399.00;5050764;28;19968;-73
2022/04/03 06:56:56;;;;;;;;;;;;;;;2.20;93.62;102392.28;5083587;28;19916;-73
2022/04/03 06:59:23;;;;;;;;;;;;;;;2.51;93.94;102392.66;5050224;28;19921;-74
2022/04/03 07:01:48;;;;;;;;;;;;;;;2.83;91.34;102381.75;5051289;28;20011;-73
2022/04/03 07:04:13;;;;;;;;;;;;;;;3.29;89.90;102386.50;5050181;28;20441;-73
2022/04/03 07:06:38;;;;;;;;;;;;;;;3.64;86.65;102366.88;5051473;28;19920;-73
2022/04/03 07:09:03;;;;;;;;;;;;;;;3.82;84.41;102354.00;5050675;28;19946;-73
2022/04/03 07:11:29;;;;;;;;;;;;;;;3.95;83.89;102352.31;5050331;28;19956;-73
2022/04/03 07:13:54;;;;;;;;;;;;;;;3.95;83.28;102356.66;5050730;28;19921;-74
2022/04/03 07:16:19;;;;;;;;;;;;;;;3.95;83.54;102361.88;5049617;28;19916;-73
2022/04/03 07:18:44;;;;;;;;;;;;;;;4.02;83.88;102358.44;5052491;28;19975;-74
2022/04/03 07:21:10;;;;;;;;;;;;;;;3.98;83.29;102364.47;5050885;28;19920;-73
2022/04/03 07:23:35;;;;;;;;;;;;;;;3.92;83.29;102367.91;5050328;28;19921;-73
2022/04/03 07:26:00;;;;;;;;;;;;;;;3.83;83.34;102366.13;5050695;28;19917;-73
2022/04/03 07:28:25;;;;;;;;;;;;;;;3.78;83.65;102373.03;5050115;28;19929;-73
2022/04/03 07:30:51;;;;;;;;;;;;;;;3.69;83.52;102372.97;5050774;28;19936;-75
2022/04/03 07:33:20;;;;;;;;;;;;;;;3.68;83.93;102371.22;5049678;28;19924;-74
2022/04/03 07:35:46;;;;;;;;;;;;;;;3.63;83.77;102378.13;5050974;28;20000;-73
2022/04/03 07:38:11;;;;;;;;;;;;;;;3.69;84.23;102383.34;5050294;28;20028;-74
2022/04/03 07:40:36;;;;;;;;;;;;;;;3.54;84.19;102390.19;5049649;28;19928;-74
2022/04/03 07:43:02;;;;;;;;;;;;;;;3.40;80.71;102368.44;5050190;28;19952;-73
2022/04/03 07:45:27;;;;;;;;;;;;;;;3.41;79.85;102370.19;5050141;28;19921;-74
2022/04/03 07:47:52;;;;;;;;;;;;;;;3.23;81.64;102389.06;5076693;28;20012;-74
2022/04/03 07:50:18;;;;;;;;;;;;;;;3.15;83.20;102393.31;5037158;28;19928;-75
2022/04/03 07:52:44;;;;;;;;;;;;;;;3.30;82.83;102405.59;5031746;28;19921;-74
2022/04/03 07:55:10;;;;;;;;;;;;;;;3.28;83.65;102412.50;5045971;28;19975;-75
2022/04/03 07:57:36;;;;;;;;;;;;;;;3.29;84.65;102430.66;5061547;28;19921;-74
2022/04/03 08:00:02;;;;;;;;;;;;;;;3.19;84.52;102432.34;5047263;28;20016;-74
2022/04/03 08:02:27;;;;;;;;;;;;;;;3.17;85.65;102443.53;5058105;28;20015;-74
2022/04/03 08:04:52;;;;;;;;;;;;;;;3.09;86.86;102459.03;5050575;28;19970;-75
2022/04/03 08:07:18;;;;;;;;;;;;;;;2.85;88.93;102470.91;5049560;28;19970;-75
2022/04/03 08:09:43;;;;;;;;;;;;;;;2.52;90.94;102493.00;5050426;28;20771;-75
2022/04/03 08:12:09;;;;;;;;;;;;;;;2.11;92.59;102496.72;5048539;28;19917;-76
2022/04/03 08:14:34;;;;;;;;;;;;;;;1.93;93.92;102512.84;5043953;28;19920;-76
2022/04/03 08:16:59;;;;;;;;;;;;;;;1.82;95.08;102496.25;5049409;28;20011;-76
2022/04/03 08:19:25;;;;;;;;;;;;;;;1.76;96.61;102493.56;5045904;28;19960;-75
2022/04/03 08:21:50;;;;;;;;;;;;;;;1.84;96.74;102485.06;5051017;28;20019;-74
2022/04/03 08:24:15;;;;;;;;;;;;;;;1.97;98.13;102486.16;5049247;28;19920;-75
2022/04/03 08:26:41;;;;;;;;;;;;;;;2.18;98.22;102489.91;5053451;28;19928;-74
2022/04/03 08:29:06;;;;;;;;;;;;;;;2.54;98.11;102473.09;5051077;28;19921;-76
2022/04/03 08:31:32;;;;;;;;;;;;;;;3.22;97.19;102479.09;5052928;28;20301;-77
2022/04/03 08:33:57;;;;;;;;;;;;;;;4.53;96.58;102472.28;5052438;28;19917;-74
2022/04/03 08:36:23;;;;;;;;;;;;;;;5.61;91.66;102453.44;5051720;28;19916;-76
2022/04/03 08:38:50;;;;;;;;;;;;;;;6.44;86.70;102423.75;5051827;28;19917;-75
2022/04/03 08:41:15;;;;;;;;;;;;;;;6.37;81.67;102403.78;5050978;28;20354;-75
2022/04/03 08:43:40;;;;;;;;;;;;;;;6.34;80.03;102394.19;5085793;28;20039;-73
2022/04/03 08:46:07;;;;;;;;;;;;;;;6.98;80.19;102399.97;5052099;28;19948;-75
2022/04/03 08:48:33;;;;;;;;;;;;;;;8.23;76.51;102379.63;5051064;28;19925;-74
2022/04/03 08:51:03;;;;;;;;;;;;;;;9.15;71.02;102350.44;5046407;28;20354;-74
2022/04/03 08:53:30;;;;;;;;;;;;;;;8.76;70.63;102350.19;5038771;28;19979;-75
2022/04/03 08:55:55;;;;;;;;;;;;;;;8.23;71.29;102358.69;5046311;28;19932;-77
2022/04/03 08:58:20;;;;;;;;;;;;;;;7.49;73.98;102375.19;5047008;28;20370;-76
2022/04/03 09:00:46;;;;;;;;;;;;;;;6.60;76.55;102399.31;5045932;28;19917;-75
2022/04/03 09:03:13;;;;;;;;;;;;;;;6.38;78.87;102408.97;5075678;28;19917;-76
2022/04/03 09:05:39;;;;;;;;;;;;;;;6.11;79.54;102415.16;5051182;28;19917;-76
2022/04/03 09:08:05;;;;;;;;;;;;;;;6.09;81.82;102430.84;5050176;28;20008;-75
2022/04/03 09:10:31;;;;;;;;;;;;;;;5.97;80.98;102436.88;5052222;28;19937;-75
2022/04/03 09:12:56;;;;;;;;;;;;;;;5.52;83.07;102451.69;5053344;28;19936;-75
2022/04/03 09:15:22;;;;;;;;;;;;;;;5.00;85.34;102455.97;5043668;28;19998;-76
2022/04/03 09:17:50;;;;;;;;;;;;;;;4.71;86.17;102461.97;5048108;28;19932;-75
2022/04/03 09:20:16;;;;;;;;;;;;;;;4.39;85.48;102444.47;5056718;28;20388;-74
2022/04/03 09:22:42;;;;;;;;;;;;;;;4.38;86.17;102431.44;5051666;28;19971;-75
2022/04/03 09:25:10;;;;;;;;;;;;;;;4.74;86.67;102425.50;5053259;28;20000;-75
2022/04/03 09:27:45;;;;;;;;;;;;;;;6.47;84.21;102402.88;5051834;28;19925;-74
2022/04/03 09:30:10;;;;;;;;;;;;;;;8.57;74.54;102358.28;5052466;28;19971;-74
2022/04/03 09:32:44;;;;;;;;;;;;;;;10.79;67.55;102314.81;5052109;28;19916;-75
2022/04/03 09:35:10;;;;;;;;;;;;;;;12.24;60.27;102298.69;5051537;28;19925;-76
2022/04/03 09:37:36;;;;;;;;;;;;;;;13.27;55.85;102291.84;5051618;28;19952;-74
2022/04/03 09:40:03;;;;;;;;;;;;;;;14.28;53.87;102389.50;5052278;28;19952;-74
2022/04/03 09:42:29;;;;;;;;;;;;;;;15.20;50.47;102402.72;5052279;28;19917;-74
2022/04/03 09:44:55;;;;;;;;;;;;;;;14.96;50.87;102399.25;5052062;28;19925;-75
2022/04/03 09:47:21;;;;;;;;;;;;;;;16.17;47.96;102400.34;5051040;28;19986;-75
2022/04/03 09:50:02;;;;;;;;;;;;;;;16.91;46.45;102405.75;5052938;28;19917;-75
2022/04/03 09:52:35;;;;;;;;;;;;;;;17.64;43.99;102404.84;5051766;28;19956;-74
2022/04/03 09:55:05;;;;;;;;;;;;;;;16.57;45.94;102410.91;5052483;28;19921;-76
2022/04/03 09:57:30;;;;;;;;;;;;;;;16.10;47.00;102403.34;5052509;28;19916;-74
2022/04/03 09:59:56;;;;;;;;;;;;;;;16.97;46.63;102397.53;5053016;28;20449;-75
2022/04/03 10:02:22;;;;;;;;;;;;;;;16.80;45.20;102398.31;5050697;28;19939;-75
2022/04/03 10:04:50;;;;;;;;;;;;;;;16.51;45.92;102401.44;5053179;28;20290;-77
2022/04/03 10:07:15;;;;;;;;;;;;;;;15.60;47.53;102418.69;5051323;28;19932;-76
2022/04/03 10:09:43;;;;;;;;;;;;;;;13.33;51.71;102446.50;5052087;28;19916;-76
2022/04/03 10:12:09;;;;;;;;;;;;;;;11.37;56.92;102451.06;5052270;28;19917;-75
2022/04/03 10:14:34;;;;;;;;;;;;;;;9.70;62.47;102464.06;5052551;28;19924;-75
2022/04/03 10:16:59;;;;;;;;;;;;;;;8.81;65.02;102461.91;5052597;28;19925;-76
2022/04/03 10:19:25;;;;;;;;;;;;;;;8.02;68.72;102454.91;5083159;28;19932;-75
2022/04/03 10:21:54;;;;;;;;;;;;;;;8.41;69.59;102449.25;5054089;28;20025;-75
2022/04/03 10:24:20;;;;;;;;;;;;;;;8.74;67.93;102443.66;5052195;28;19921;-76
2022/04/03 10:26:51;;;;;;;;;;;;;;;8.91;68.62;102443.44;5052747;28;19961;-75
2022/04/03 10:29:16;;;;;;;;;;;;;;;10.59;62.32;102415.16;5051413;28;19924;-77
2022/04/03 10:31:53;;;;;;;;;;;;;;;12.51;57.41;102403.28;5050258;28;19917;-76
2022/04/03 10:34:20;;;;;;;;;;;;;;;14.17;50.92;102389.91;5051520;28;19924;-76
2022/04/03 10:36:46;;;;;;;;;;;;;;;13.92;49.38;102387.28;5050829;28;19925;-76
2022/04/03 10:39:11;;;;;;;;;;;;;;;14.29;50.24;102396.53;5050892;28;19924;-75
2022/04/03 10:41:39;;;;;;;;;;;;;;;13.80;51.11;102400.94;5049973;28;19921;-75
2022/04/03 10:44:11;;;;;;;;;;;;;;;13.65;51.84;102408.50;5044075;28;19971;-75
2022/04/03 10:46:51;;;;;;;;;;;;;;;14.15;51.21;102397.03;5046685;28;19917;-76
2022/04/03 10:49:16;;;;;;;;;;;;;;;13.64;49.94;102390.94;5045764;28;20380;-74
2022/04/03 10:51:42;;;;;;;;;;;;;;;13.19;51.86;102387.09;5049928;28;19996;-75
2022/04/03 10:54:07;;;;;;;;;;;;;;;13.63;52.20;102388.31;5051685;28;19921;-76
2022/04/03 10:56:32;;;;;;;;;;;;;;;13.32;50.85;102379.66;5051642;28;19943;-76
2022/04/03 10:58:58;;;;;;;;;;;;;;;13.60;50.46;102386.66;5051505;28;19943;-76
2022/04/03 11:01:26;;;;;;;;;;;;;;;12.88;53.40;102393.38;5050123;28;19955;-75
2022/04/03 11:03:54;;;;;;;;;;;;;;;12.31;52.26;102379.28;5049609;28;19921;-76
2022/04/03 11:06:21;;;;;;;;;;;;;;;11.06;54.10;102388.69;5050666;28;19921;-74
2022/04/03 11:08:55;;;;;;;;;;;;;;;10.52;55.09;102386.38;5050033;28;19953;-74
2022/04/03 11:11:36;;;;;;;;;;;;;;;10.70;56.98;102391.25;5050589;28;20340;-76
2022/04/03 11:14:01;;;;;;;;;;;;;;;10.09;57.44;102394.25;5044974;28;19921;-73
2022/04/03 11:16:26;;;;;;;;;;;;;;;9.69;58.97;102398.47;5051271;28;19974;-76
2022/04/03 11:18:52;;;;;;;;;;;;;;;9.59;59.01;102400.41;5049742;28;19924;-75
2022/04/03 11:21:26;;;;;;;;;;;;;;;9.61;61.82;102406.47;5050620;28;19928;-76
2022/04/03 11:23:52;;;;;;;;;;;;;;;9.75;59.78;102383.50;5048847;28;20344;-76
2022/04/03 11:26:18;;;;;;;;;;;;;;;9.70;60.71;102389.72;5047868;28;19925;-75
2022/04/03 11:28:44;;;;;;;;;;;;;;;9.81;58.14;102377.25;5048076;28;19921;-75
2022/04/03 11:31:10;;;;;;;;;;;;;;;9.69;57.21;102367.00;5047848;28;19921;-76
2022/04/03 11:33:36;;;;;;;;;;;;;;;9.68;59.04;102376.63;5050693;28;20021;-76
2022/04/03 11:36:03;;;;;;;;;;;;;;;9.60;59.75;102396.88;5049078;28;20386;-75
2022/04/03 11:38:37;;;;;;;;;;;;;;;8.82;63.02;102398.09;5051441;28;19990;-75
2022/04/03 11:41:04;;;;;;;;;;;;;;;7.80;65.52;102404.53;5072472;28;19928;-75
2022/04/03 11:43:30;;;;;;;;;;;;;;;7.10;68.21;102399.03;5050704;28;20247;-76
2022/04/03 11:45:59;;;;;;;;;;;;;;;6.72;71.43;102397.53;5050439;28;19931;-77
2022/04/03 11:48:28;;;;;;;;;;;;;;;6.59;73.53;102394.09;5050353;28;19970;-77
2022/04/03 11:51:11;;;;;;;;;;;;;;;6.53;71.81;102392.38;5049514;28;20001;-75
2022/04/03 11:53:36;;;;;;;;;;;;;;;6.59;71.28;102397.59;5049444;28;19956;-77
2022/04/03 11:56:06;;;;;;;;;;;;;;;6.39;73.04;102404.66;5048907;28;20009;-75
2022/04/03 11:58:31;;;;;;;;;;;;;;;5.87;77.80;102409.09;5047856;28;19924;-75
2022/04/03 12:00:57;;;;;;;;;;;;;;;5.37;79.58;102413.47;5049773;28;19990;-75
2022/04/03 12:03:30;;;;;;;;;;;;;;;5.07;78.50;102412.56;5049605;28;19917;-75
2022/04/03 12:06:11;;;;;;;;;;;;;;;4.93;79.02;102404.75;5081641;28;19924;-75
2022/04/03 12:08:38;;;;;;;;;;;;;;;4.92;81.32;102403.00;5048319;28;19925;-75
2022/04/03 12:11:14;;;;;;;;;;;;;;;5.35;81.00;102400.44;5044728;28;19967;-75
2022/04/03 12:13:40;;;;;;;;;;;;;;;5.40;78.83;102385.66;5049959;28;19928;-74
2022/04/03 12:16:06;;;;;;;;;;;;;;;5.98;80.38;102389.06;5062920;28;19921;-75
2022/04/03 12:18:46;;;;;;;;;;;;;;;6.28;78.02;102382.06;5050945;28;20007;-76
2022/04/03 12:21:11;;;;;;;;;;;;;;;6.12;76.76;102369.94;5039607;28;19925;-76
2022/04/03 12:23:36;;;;;;;;;;;;;;;6.13;77.29;102374.28;5050121;28;19921;-75
2022/04/03 12:26:02;;;;;;;;;;;;;;;6.22;75.71;102365.56;5046904;28;19995;-75
2022/04/03 12:28:27;;;;;;;;;;;;;;;6.00;75.83;102366.50;5050971;28;19924;-75
2022/04/03 12:30:59;;;;;;;;;;;;;;;5.92;76.10;102364.72;5063524;28;20443;-75